Barcroft Research Lab Weather observations

Data are for 10 minute period ending at time listed.
 Day   Time   Solar   Ave.   Ave.  Ave.  Vector  Std.   Max.    Baro.    
  of    of     Rad.   Air    Rel.  Wind   Wind   Dev.   Wind   Press.    
Year   Day            Temp.  Hum.  Speed  Dir.   Dir.   Gust            
2016   (PST)  Kw/m2    F      %     mph   deg.   deg.    mph     mb.    
------------------------------------------------------------------------
 178    3:50       0   43.1    38    2.5   198    -99     5.9   651.80  
 178    4:00       0   43.3    38    3.0   198    -99     6.6   651.80  
 178    4:10       0   43.5    37    2.8   197    -99     7.0   651.80  
 178    4:20       1   43.4    37    3.1   201    -99     6.3   651.80  
 178    4:30       2   43.3    38    3.3   202    -99     6.1   651.80  
 178    4:40       6   43.7    36    3.1   198    -99     5.6   651.80  
 178    4:50      19   44.4    36    2.8   197    -99     5.7   651.80  
 178    5:00      41   45.2    36    2.7   195    -99     6.2   651.80  
 178    5:10      70   45.8    36    2.5   197    -99     6.5   652.00  
 178    5:20     106   46.4    36    1.9   192    -99     5.0   652.00  
 178    5:30     140   46.8    36    2.6   183    -99     7.2   652.00  
 178    5:40     171   47.2    36    3.6   182    -99     8.8   652.00  
 178    5:50     203   47.8    36    3.5   183    -99     8.4   652.00  
 178    6:00     236   48.4    36    4.4   181    -99     8.6   652.00  
 178    6:10     270   48.9    35    5.7   173    -99     9.8   652.30  
 178    6:20     304   49.6    34    7.4   168    -99    13.7   652.30  
 178    6:30     339   50.1    33    8.4   166    -99    13.6   652.30  
 178    6:40     374   50.3    32    9.1   165    -99    14.3   652.30  
 178    6:50     408   50.7    31    8.9   165    -99    13.7   652.30  
 178    7:00     443   51.1    30   10.6   164    -99    16.1   652.30  
 178    7:10     475   51.6    30    9.6   169    -99    14.6   652.40  
 178    7:20     509   52.1    29   10.1   164    -99    15.2   652.40  
 178    7:30     543   53.1    29   10.0   164    -99    15.2   652.40  
 178    7:40     578   52.9    28   10.4   166    -99    15.9   652.40  
 178    7:50     593   53.0    27   10.1   164    -99    17.8   652.40  
 178    8:00     639   52.8    27   10.3   170    -99    17.1   652.40  
 178    8:10     669   52.9    27   10.6   166    -99    18.6   652.80  
 178    8:20     700   53.9    26    9.7   161    -99    16.0   652.80  
 178    8:30     728   54.0    26   10.7   162    -99    20.1   652.80  
 178    8:40     756   53.8    24    9.8   171    -99    19.7   652.80  
 178    8:50     785   54.2    24   10.2   171    -99    19.9   652.80  
 178    9:00     811   54.8    23   11.5   162    -99    20.1   652.80  
 178    9:10     834   54.9    23    9.4   168    -99    17.0   652.80  
 178    9:20     858   54.6    23    7.1   182    -99    14.5   652.80  
 178    9:30     881   54.6    22    9.7   172    -99    19.4   652.80  
 178    9:40     902   54.6    22    8.6   172    -99    16.9   652.80  
 178    9:50     920   54.8    22    8.5   174    -99    15.0   652.80  
 178   10:00     940   55.2    21    6.9   176    -99    14.5   652.80  
 178   10:10     957   55.2    21    7.5   176    -99    15.3   653.00  
 178   10:20     973   55.7    20    7.6   177    -99    15.1   653.00  
 178   10:30     985   55.4    20    7.9   182    -99    16.8   653.00  
 178   10:40     996   56.0    20    8.5   176    -99    14.8   653.00  
 178   10:50    1007   56.4    20    7.3   169    -99    15.8   653.00  
 178   11:00    1013   56.4    19    5.5   185    -99    13.9   653.00  
 178   11:10    1021   55.7    20    5.9   192    -99    13.8   653.30  
 178   11:20    1023   55.8    20    6.9   189    -99    14.1   653.30  
 178   11:30    1026   55.8    22    5.1   210    -99    11.7   653.30  
 178   11:40    1029   57.2    22    5.9   180    -99    13.6   653.30  
 178   11:50    1032   56.1    22    6.2   235    -99    13.4   653.30  
 178   12:00    1034   55.5    23    8.4   244    -99    13.4   653.30  
 178   12:10    1031   55.3    22    6.6   257    -99    12.4   653.60  
 178   12:20    1028   55.6    21    7.5   232    -99    15.0   653.60  
 178   12:30    1024   55.9    23    8.6   244    -99    19.1   653.60  
 178   12:40    1019   56.4    22    7.8   230    -99    17.8   653.60  
 178   12:50    1014   57.0    22    7.0   221    -99    13.4   653.60  
 178   13:00    1007   56.9    21    7.4   229    -99    14.5   653.60  
 178   13:10     996   57.2    21    6.5   240    -99    15.5   653.60  
 178   13:20     983   57.0    21    7.7   240    -99    14.3   653.60  
 178   13:30     972   57.5    21    6.5   232    -99    15.8   653.60  
 178   13:40     954   57.5    20    6.6   228    -99    13.1   653.60  
 178   13:50     935   58.5    21    5.6   234    -99    14.0   653.60  
 178   14:00     889   57.7    21    6.3   227    -99    12.4   653.60  
 178   14:10     902   58.8    21    7.2   187    -99    18.2   653.60  
 178   14:20     886   58.1    20    6.9   234    -99    14.5   653.60  
 178   14:30     863   58.9    20    5.4   188    -99    14.2   653.60  
 178   14:40     839   59.0    20    7.7   226    -99    17.0   653.60  
 178   14:50     811   58.7    21    6.2   220    -99    15.2   653.60  
 178   15:00     790   58.6    20    8.4   208    -99    15.9   653.60  
 178   15:10     760   58.3    20    8.0   205    -99    18.5   653.40  
 178   15:20     732   58.6    19    4.8   214    -99    11.8   653.40  
 178   15:30     703   59.1    20    4.5   194    -99     9.5   653.40  
 178   15:40     675   59.1    18    6.3   209    -99    13.0   653.40  
 178   15:50     644   59.2    20    4.5   174    -99     9.5   653.40  
 178   16:00     607   59.2    19    7.4   241    -99    14.6   653.40  
 178   16:10     576   58.5    19    5.6   221    -99    12.9   653.40  
 178   16:20     552   59.2    18    5.2   212    -99    13.5   653.40  
 178   16:30     521   59.2    19    4.1   224    -99     9.5   653.40  
 178   16:40     357   59.1    19    3.1   232    -99     8.3   653.40  
 178   16:50     425   58.9    20    4.9   245    -99    19.0   653.40  
 178   17:00     449   59.3    19    2.7   198    -99     8.3   653.40  
 178   17:10     400   59.3    19    5.0   241    -99     9.8   653.40  
 178   17:20     348   58.7    21    4.3   192    -99    11.5   653.40  
 178   17:30     308   58.5    21    3.2   193    -99     8.2   653.40  
 178   17:40     274   58.9    20    2.1   236    -99     4.7   653.40  
 178   17:50     238   58.5    21    3.1   186    -99     6.9   653.40  
 178   18:00     122   57.7    20    2.6   220    -99     5.6   653.40  
 178   18:10      31   55.2    25    4.2   269    -99     9.9   653.50  
 178   18:20      28   53.8    28    5.3   273    -99     8.0   653.50  
 178   18:30      25   53.5    29    4.7   282    -99     8.3   653.50  
 178   18:40      21   52.7    30    2.9   284    -99     4.7   653.50  
 178   18:50      18   51.9    36    2.1   264    -99     4.4   653.50  
 178   19:00      14   51.8    32    3.5   232    -99     5.0   653.50  
 178   19:10       9   52.8    30    3.3   218    -99     5.3   653.60  
 178   19:20       4   52.5    32    3.7   235    -99     5.3   653.60  
 178   19:30       2   52.0    32    3.4   237    -99     4.4   653.60  
 178   19:40       0   51.7    33    3.3   239    -99     4.2   653.60  
 178   19:50       0   51.1    33    1.9   201    -99     5.4   653.60  
 178   20:00       0   50.6    33    1.9   202    -99     4.5   653.60  
 178   20:10       0   50.1    34    2.7   219    -99     4.4   653.80  
 178   20:20       0   50.7    32    3.8   224    -99     4.6   653.80  
 178   20:30       0   50.9    32    3.7   220    -99     5.0   653.80  
 178   20:40       0   50.4    34    3.0   214    -99     4.4   653.80  
 178   20:50       0   50.1    34    4.0   224    -99     5.4   653.80  
 178   21:00       0   50.1    34    3.6   222    -99     5.0   653.80  
 178   21:10       0   50.0    35    3.6   227    -99     4.5   654.00  
 178   21:20       0   49.7    35    2.9   226    -99     3.8   654.00  
 178   21:30       0   49.4    36    3.1   234    -99     4.0   654.00  
 178   21:40       0   48.8    36    3.2   239    -99     4.2   654.00  
 178   21:50       0   49.2    34    2.8   239    -99     4.2   654.00  
 178   22:00       0   49.5    34    3.2   232    -99     4.3   654.00  
 178   22:10       0   48.9    36    2.5   257    -99     3.9   654.00  
 178   22:20       0   47.8    37    2.7   256    -99     3.3   654.00  
 178   22:30       0   47.9    36    1.5   225    -99     2.9   654.00  
 178   22:40       0   47.9    38    1.3   298    -99     3.1   654.00  
 178   22:50       0   46.4    40    1.8   332    -99     3.1   654.00  
 178   23:00       0   45.8    40    1.9   345    -99     4.7   654.00  
 178   23:10       0   47.6    36    3.1     0    -99     6.6   654.00  
 178   23:20       0   47.2    38    2.8     4    -99     6.0   654.00  
 178   23:30       0   47.5    37    4.0    16    -99     7.5   654.00  
 178   23:40       0   47.6    37    4.3    19    -99     7.8   654.00  
 178   23:50       0   47.2    37    3.4    10    -99     5.8   654.00  
 179    0:00       0   46.9    37    2.8     2    -99     5.0   654.00  
 179    0:10       0   46.7    37    2.8     5    -99     4.7   654.00  
 179    0:20       0   46.5    37    1.7   352    -99     2.9   654.00  
 179    0:30       0   43.8    46    2.1   318    -99     3.2   654.00  
 179    0:40       0   42.2    52    1.6   314    -99     2.8   654.00  
 179    0:50       0   42.0    49    2.6   327    -99     4.0   654.00  
 179    1:00       0   43.1    46    2.3   316    -99     3.4   654.00  
 179    1:10       0   41.7    46    1.2   314    -99     3.2   653.70  
 179    1:20       0   41.6    49    2.0   296    -99     3.1   653.70  
 179    1:30       0   42.2    46    1.6   281    -99     2.9   653.70  
 179    1:40       0   43.2    44    1.7   235    -99     3.7   653.70  
 179    1:50       0   44.5    42    1.8   206    -99     3.8   653.70  
 179    2:00       0   44.8    42    2.1   224    -99     3.1   653.70  
 179    2:10       0   44.9    42    2.1   219    -99     3.3   653.70  
 179    2:20       0   45.3    42    2.8   221    -99     4.3   653.70  
 179    2:30       0   45.6    43    3.0   215    -99     4.3   653.70  
 179    2:40       0   45.5    45    3.0   213    -99     4.9   653.70  
 179    2:50       0   45.4    45    4.9   220    -99     6.9   653.70  
 179    3:00       0   45.6    45    5.8   225    -99     8.0   653.70  
 179    3:10       0   45.6    45    6.3   226    -99     7.6   653.50  
 179    3:20       0   45.4    46    6.4   225    -99     8.3   653.50  
 179    3:30       0   45.2    46    6.2   229    -99     8.0   653.50  
 179    3:40       0   45.4    45    6.9   228    -99     8.7   653.50  

Return to Barcroft Research Lab graphs page.


Western Regional Climate Center,wrcc@dri.edu